createdAt,value
2022-08-12T00:01:01.297Z,13.60
2022-08-12T00:03:51.906Z,11.73
2022-08-12T00:06:42.635Z,12.40
2022-08-12T00:09:32.657Z,8.75
2022-08-12T00:12:23.120Z,10.18
2022-08-12T00:15:12.977Z,14.38
2022-08-12T00:18:03.353Z,12.10
2022-08-12T00:20:53.470Z,7.90
2022-08-12T00:23:43.661Z,10.23
2022-08-12T00:26:36.582Z,9.52
2022-08-12T00:29:26.746Z,10.05
2022-08-12T00:32:35.427Z,10.85
2022-08-12T00:35:30.784Z,7.32
2022-08-12T00:38:27.349Z,9.90
2022-08-12T00:41:17.634Z,12.48
2022-08-12T00:43:48.855Z,8.88
2022-08-12T00:46:38.919Z,10.15
2022-08-12T00:49:10.463Z,9.15
2022-08-12T00:52:02.028Z,10.00
2022-08-12T00:54:32.681Z,7.60
2022-08-12T00:57:06.683Z,8.32
2022-08-12T00:59:38.535Z,9.80
2022-08-12T01:02:12.171Z,8.95
2022-08-12T01:05:05.309Z,7.68
2022-08-12T01:07:55.998Z,7.85
2022-08-12T01:10:46.404Z,14.18
2022-08-12T01:13:20.613Z,7.97
2022-08-12T01:15:55.490Z,6.88
2022-08-12T01:18:26.933Z,8.13
2022-08-12T01:21:18.827Z,11.27
2022-08-12T01:24:23.007Z,7.82
2022-08-12T01:26:59.967Z,8.75
2022-08-12T01:29:32.981Z,7.70
2022-08-12T01:32:07.747Z,8.48
2022-08-12T01:34:39.794Z,9.18
2022-08-12T01:37:12.286Z,8.77
2022-08-12T01:40:35.436Z,11.25
2022-08-12T01:42:53.703Z,9.10
2022-08-12T01:45:25.890Z,9.77
2022-08-12T01:48:03.873Z,9.00
2022-08-12T01:50:39.553Z,9.18
2022-08-12T01:53:14.514Z,6.53
2022-08-12T01:55:47.912Z,6.50
2022-08-12T01:58:57.173Z,12.07
2022-08-12T02:01:32.045Z,9.65
2022-08-12T02:04:41.402Z,12.02
2022-08-12T02:07:40.375Z,40.10
2022-08-12T02:10:50.353Z,34.28
2022-08-12T02:13:43.806Z,10.05
2022-08-12T02:16:26.113Z,11.95
2022-08-12T02:19:22.274Z,8.18
2022-08-12T02:22:01.453Z,6.63
2022-08-12T02:24:35.483Z,8.20
2022-08-12T02:27:07.544Z,8.77
2022-08-12T02:29:38.490Z,10.35
2022-08-12T02:32:09.930Z,9.57
2022-08-12T02:34:40.534Z,9.48
2022-08-12T02:37:11.962Z,8.63
2022-08-12T02:39:43.756Z,9.93
2022-08-12T02:42:17.834Z,9.95
2022-08-12T02:44:50.854Z,8.40
2022-08-12T02:47:59.161Z,10.43
2022-08-12T02:50:13.935Z,5.95
2022-08-12T02:52:44.796Z,6.75
2022-08-12T02:55:29.056Z,6.65
2022-08-12T02:58:12.057Z,8.80
2022-08-12T03:00:45.696Z,10.50
2022-08-12T03:03:16.991Z,7.95
2022-08-12T03:05:50.535Z,9.02
2022-08-12T03:08:32.460Z,6.70
2022-08-12T03:11:23.473Z,7.85
2022-08-12T03:13:56.139Z,7.32
2022-08-12T03:16:29.463Z,9.95
2022-08-12T03:19:03.748Z,8.32
2022-08-12T03:21:52.780Z,8.65
2022-08-12T03:24:29.043Z,6.85
2022-08-12T03:27:00.447Z,7.32
2022-08-12T03:29:49.873Z,10.27
2022-08-12T03:32:35.232Z,8.13
2022-08-12T03:35:09.250Z,8.60
2022-08-12T03:38:00.810Z,6.65
2022-08-12T03:40:53.043Z,7.13
2022-08-12T03:43:51.187Z,6.88
2022-08-12T03:46:47.425Z,8.32
2022-08-12T03:49:37.603Z,12.95
2022-08-12T03:52:28.135Z,6.70
2022-08-12T03:55:18.066Z,8.18
2022-08-12T03:58:08.360Z,7.80
2022-08-12T04:00:40.097Z,5.40
2022-08-12T04:03:30.145Z,5.03
2022-08-12T04:06:00.288Z,7.82
2022-08-12T04:08:30.975Z,6.97
2022-08-12T04:11:21.532Z,11.23
2022-08-12T04:13:52.437Z,25.92
2022-08-12T04:16:23.543Z,11.10
2022-08-12T04:18:54.599Z,20.70
2022-08-12T04:21:26.013Z,14.60
2022-08-12T04:23:59.778Z,6.20
2022-08-12T04:26:30.829Z,17.77
2022-08-12T04:29:02.473Z,7.82
2022-08-12T04:31:33.803Z,9.93
2022-08-12T04:34:04.859Z,50.40
2022-08-12T04:36:36.049Z,9.88
2022-08-12T04:39:07.165Z,8.02
2022-08-12T04:41:38.867Z,11.00
2022-08-12T04:44:29.491Z,10.52
2022-08-12T04:46:59.943Z,14.07
2022-08-12T04:49:30.780Z,7.88
2022-08-12T04:52:01.877Z,9.00
2022-08-12T04:54:32.655Z,9.38
2022-08-12T04:57:05.144Z,9.95
2022-08-12T04:59:47.922Z,8.48
2022-08-12T05:02:20.935Z,8.32
2022-08-12T05:05:01.041Z,9.90
2022-08-12T05:07:31.856Z,12.70
2022-08-12T05:10:02.773Z,9.57
2022-08-12T05:12:37.901Z,8.85
2022-08-12T05:15:19.079Z,11.77
2022-08-12T05:18:00.151Z,8.07
2022-08-12T05:20:32.875Z,8.90
2022-08-12T05:23:13.052Z,14.38
2022-08-12T05:25:44.888Z,13.25
2022-08-12T05:28:17.634Z,14.05
2022-08-12T05:30:50.149Z,12.80
2022-08-12T05:33:20.737Z,7.57
2022-08-12T05:35:51.747Z,7.22
2022-08-12T05:38:42.182Z,8.48
2022-08-12T05:41:20.564Z,8.85
2022-08-12T05:43:53.433Z,10.45
2022-08-12T05:46:25.797Z,6.93
2022-08-12T05:48:56.842Z,6.85
2022-08-12T05:51:39.963Z,10.68
2022-08-12T05:54:12.822Z,8.52
2022-08-12T05:56:43.866Z,13.18
2022-08-12T05:59:15.411Z,13.15
2022-08-12T06:02:11.642Z,7.30
2022-08-12T06:04:38.188Z,12.15
2022-08-12T06:07:59.486Z,11.50
2022-08-12T06:10:01.874Z,8.02
2022-08-12T06:12:32.271Z,9.93
2022-08-12T06:15:04.357Z,11.02
2022-08-12T06:17:34.943Z,10.93
2022-08-12T06:20:27.147Z,7.65
2022-08-12T06:22:55.381Z,8.25
2022-08-12T06:25:30.488Z,8.50
2022-08-12T06:28:07.814Z,6.40
2022-08-12T06:30:39.927Z,6.78
2022-08-12T06:33:11.818Z,8.45
2022-08-12T06:35:57.642Z,11.30
2022-08-12T06:38:30.577Z,10.02
2022-08-12T06:41:21.614Z,13.63
2022-08-12T06:44:05.036Z,6.35
2022-08-12T06:46:41.201Z,9.02
2022-08-12T06:49:14.831Z,9.88
2022-08-12T06:51:56.419Z,7.47
2022-08-12T06:54:31.305Z,6.88
2022-08-12T06:57:04.813Z,6.15
2022-08-12T06:59:37.091Z,8.98
2022-08-12T07:02:07.572Z,12.50
2022-08-12T07:04:40.128Z,11.18
2022-08-12T07:07:11.673Z,12.68
2022-08-12T07:10:01.614Z,7.80
2022-08-12T07:12:34.426Z,6.32
2022-08-12T07:15:04.955Z,6.85
2022-08-12T07:17:38.514Z,7.68
2022-08-12T07:20:29.924Z,9.25
2022-08-12T07:23:01.570Z,13.05
2022-08-12T07:25:40.623Z,9.80
2022-08-12T07:28:19.403Z,8.05
2022-08-12T07:30:51.208Z,8.23
2022-08-12T07:33:26.624Z,8.73
2022-08-12T07:35:57.908Z,6.75
2022-08-12T07:38:38.423Z,6.53
2022-08-12T07:41:14.564Z,7.45
2022-08-12T07:44:01.274Z,7.15
2022-08-12T07:46:38.135Z,4.80
2022-08-12T07:49:11.107Z,11.02
2022-08-12T07:51:41.910Z,11.07
2022-08-12T07:54:14.374Z,8.75
2022-08-12T07:56:45.677Z,7.85
2022-08-12T07:59:16.001Z,8.10
2022-08-12T08:01:46.604Z,8.52
2022-08-12T08:04:36.762Z,8.73
2022-08-12T08:07:10.995Z,11.27
2022-08-12T08:09:41.894Z,8.60
2022-08-12T08:12:31.803Z,9.52
2022-08-12T08:15:03.199Z,5.90
2022-08-12T08:17:33.810Z,9.45
2022-08-12T08:20:04.643Z,6.10
2022-08-12T08:22:41.387Z,7.63
2022-08-12T08:25:20.450Z,7.20
2022-08-12T08:28:06.366Z,8.20
2022-08-12T08:30:37.055Z,8.13
2022-08-12T08:33:24.596Z,7.55
2022-08-12T08:36:02.168Z,7.60
2022-08-12T08:38:35.434Z,8.45
2022-08-12T08:42:18.740Z,9.18
2022-08-12T08:44:18.193Z,38.47
2022-08-12T08:46:51.111Z,7.90
2022-08-12T08:49:22.351Z,9.20
2022-08-12T08:51:52.665Z,7.72
2022-08-12T08:54:22.790Z,7.30
2022-08-12T08:56:53.873Z,7.32
2022-08-12T08:59:24.526Z,10.18
2022-08-12T09:01:55.033Z,8.88
2022-08-12T09:05:11.973Z,17.65
2022-08-12T09:07:51.053Z,18.17
2022-08-12T09:10:15.643Z,8.65
2022-08-12T09:13:23.886Z,6.53
2022-08-12T09:16:00.236Z,20.20
2022-08-12T09:18:33.670Z,11.70
2022-08-12T09:21:06.420Z,12.75
2022-08-12T09:23:58.770Z,8.80
2022-08-12T09:26:31.943Z,9.73
2022-08-12T09:29:12.442Z,9.57
2022-08-12T09:32:02.955Z,9.52
2022-08-12T09:34:42.212Z,9.25
2022-08-12T09:37:18.880Z,9.07
2022-08-12T09:40:05.758Z,10.73
2022-08-12T09:43:17.693Z,10.65
2022-08-12T09:46:11.713Z,13.23
2022-08-12T09:48:55.672Z,8.93
2022-08-12T09:51:37.826Z,9.50
2022-08-12T09:54:33.626Z,10.75
2022-08-12T09:58:44.741Z,8.45
2022-08-12T10:00:15.136Z,7.60
2022-08-12T10:03:32.709Z,8.73
2022-08-12T10:06:26.729Z,10.70
2022-08-12T10:08:52.312Z,9.32
2022-08-12T10:12:09.798Z,10.40
2022-08-12T10:14:36.899Z,10.02
2022-08-12T10:17:09.070Z,12.52
2022-08-12T10:19:41.575Z,13.65
2022-08-12T10:22:38.782Z,10.43
2022-08-12T10:26:33.799Z,11.15
2022-08-12T10:28:42.487Z,8.60
2022-08-12T10:32:19.553Z,9.02
2022-08-12T10:34:26.596Z,7.85
2022-08-12T10:37:00.297Z,7.72
2022-08-12T10:40:01.480Z,10.93
2022-08-12T10:43:01.599Z,9.13
2022-08-12T10:45:32.743Z,9.43
2022-08-12T10:48:21.923Z,10.15
2022-08-12T10:51:03.427Z,10.65
2022-08-12T10:53:46.039Z,10.30
2022-08-12T10:56:21.395Z,9.35
2022-08-12T10:58:52.187Z,11.35
2022-08-12T11:01:50.546Z,11.40
2022-08-12T11:04:22.743Z,11.27
2022-08-12T11:08:36.444Z,10.68
2022-08-12T11:09:59.559Z,17.88
2022-08-12T11:12:54.513Z,11.27
2022-08-12T11:15:33.525Z,15.70
2022-08-12T11:18:17.806Z,11.48
2022-08-12T11:20:52.143Z,17.05
2022-08-12T11:23:25.654Z,11.13
2022-08-12T11:26:08.195Z,12.35
2022-08-12T11:28:39.768Z,16.75
2022-08-12T11:31:14.207Z,17.40
2022-08-12T11:34:06.623Z,23.83
2022-08-12T11:36:39.393Z,106.00
2022-08-12T11:39:12.480Z,123.18
2022-08-12T11:41:43.801Z,54.55
2022-08-12T11:44:37.277Z,65.88
2022-08-12T11:47:09.384Z,70.13
2022-08-12T11:49:39.952Z,60.63
2022-08-12T11:52:17.339Z,41.10
2022-08-12T11:55:00.736Z,32.70
2022-08-12T11:58:40.481Z,25.85
2022-08-12T12:03:13.173Z,29.20
2022-08-12T12:05:47.454Z,27.42
2022-08-12T12:08:38.416Z,29.20
2022-08-12T12:11:12.981Z,35.40
2022-08-12T12:14:06.837Z,27.33
2022-08-12T12:16:38.157Z,27.92
2022-08-12T12:19:11.034Z,33.15
2022-08-12T12:21:47.096Z,31.60
2022-08-12T12:24:22.162Z,42.88
2022-08-12T12:27:00.441Z,63.83
2022-08-12T12:30:19.772Z,115.72
2022-08-12T12:32:29.451Z,89.95
2022-08-12T12:35:14.152Z,83.80
2022-08-12T12:38:05.489Z,100.53
2022-08-12T12:40:44.116Z,687.33
2022-08-12T12:43:15.524Z,136.02
2022-08-12T12:45:46.797Z,105.03
2022-08-12T12:48:19.617Z,114.55
2022-08-12T12:51:12.086Z,100.88
2022-08-12T12:54:08.846Z,122.10
2022-08-12T12:56:35.187Z,159.20
2022-08-12T12:59:07.550Z,288.58
2022-08-12T13:02:07.719Z,328.63
2022-08-12T13:04:39.462Z,236.52
2022-08-12T13:07:10.170Z,200.65
2022-08-12T13:09:40.313Z,173.65
2022-08-12T13:12:17.646Z,150.93
2022-08-12T13:14:50.680Z,138.90
2022-08-12T13:17:22.818Z,133.75
2022-08-12T13:19:56.079Z,126.03
2022-08-12T13:22:26.553Z,120.50
2022-08-12T13:24:58.525Z,90.88
2022-08-12T13:27:37.856Z,101.13
2022-08-12T13:30:11.806Z,83.88
2022-08-12T13:32:43.801Z,96.70
2022-08-12T13:35:33.544Z,92.97
2022-08-12T13:38:26.629Z,78.68
2022-08-12T13:41:10.988Z,70.65
2022-08-12T13:43:42.069Z,69.72
2022-08-12T13:46:16.015Z,64.30
2022-08-12T13:48:46.119Z,68.95
2022-08-12T13:51:24.153Z,58.53
2022-08-12T13:53:58.327Z,47.47
2022-08-12T13:56:35.856Z,42.03
2022-08-12T13:59:09.023Z,41.92
2022-08-12T14:01:41.015Z,41.33
2022-08-12T14:04:14.366Z,134.43
2022-08-12T14:06:52.037Z,157.23
2022-08-12T14:09:22.215Z,186.93
2022-08-12T14:11:59.616Z,170.30
2022-08-12T14:14:31.812Z,68.43
2022-08-12T14:17:10.982Z,46.08
2022-08-12T14:20:01.480Z,31.65
2022-08-12T14:22:33.481Z,29.42
2022-08-12T14:25:04.199Z,47.65
2022-08-12T14:28:03.775Z,31.55
2022-08-12T14:30:28.758Z,34.80
2022-08-12T14:33:04.597Z,34.80
2022-08-12T14:35:46.182Z,30.38
2022-08-12T14:38:27.025Z,26.05
2022-08-12T14:40:59.837Z,29.40
2022-08-12T14:43:59.106Z,27.38
2022-08-12T14:46:29.062Z,26.40
2022-08-12T14:50:00.921Z,29.55
2022-08-12T14:52:48.383Z,28.95
2022-08-12T14:56:58.999Z,22.05
2022-08-12T14:57:57.320Z,21.42
2022-08-12T15:00:50.986Z,25.63
2022-08-12T15:03:52.906Z,24.30
2022-08-12T15:06:44.647Z,44.28
2022-08-12T15:09:16.198Z,49.72
2022-08-12T15:11:55.303Z,56.38
2022-08-12T15:14:30.289Z,54.83
2022-08-12T15:17:01.804Z,23.52
2022-08-12T15:20:11.648Z,26.42
2022-08-12T15:22:37.105Z,25.77
2022-08-12T15:25:17.694Z,43.35
2022-08-12T15:28:03.972Z,46.67
2022-08-12T15:30:35.526Z,29.92
2022-08-12T15:33:12.976Z,16.27
2022-08-12T15:35:52.781Z,17.73
2022-08-12T15:38:25.899Z,17.70
2022-08-12T15:40:59.852Z,20.30
2022-08-12T15:44:16.632Z,36.33
2022-08-12T15:46:25.796Z,21.88
2022-08-12T15:48:57.462Z,26.08
2022-08-12T15:51:58.269Z,17.95
2022-08-12T15:54:33.960Z,17.13
2022-08-12T15:57:10.847Z,17.75
2022-08-12T16:00:03.647Z,17.20
2022-08-12T16:02:50.596Z,21.92
2022-08-12T16:06:13.340Z,17.48
2022-08-12T16:08:18.717Z,13.57
2022-08-12T16:10:55.257Z,17.52
2022-08-12T16:13:34.371Z,16.80
2022-08-12T16:16:22.539Z,14.07
2022-08-12T16:19:01.938Z,16.92
2022-08-12T16:21:52.391Z,15.70
2022-08-12T16:24:25.281Z,17.95
2022-08-12T16:26:55.749Z,16.50
2022-08-12T16:29:38.596Z,18.98
2022-08-12T16:32:31.108Z,17.13
2022-08-12T16:35:02.904Z,19.08
2022-08-12T16:38:27.884Z,18.15
2022-08-12T16:40:25.104Z,15.77
2022-08-12T16:43:45.371Z,18.30
2022-08-12T16:50:05.199Z,17.45
2022-08-12T16:52:48.384Z,18.58
2022-08-12T16:55:32.310Z,18.20
2022-08-12T16:58:28.072Z,20.45
2022-08-12T17:01:00.520Z,16.33
2022-08-12T17:03:36.639Z,18.35
2022-08-12T17:06:10.103Z,18.45
2022-08-12T17:08:49.814Z,19.58
2022-08-12T17:11:28.237Z,13.35
2022-08-12T17:14:00.327Z,16.63
2022-08-12T17:16:31.121Z,15.32
2022-08-12T17:19:08.893Z,17.70
2022-08-12T17:22:01.258Z,16.05
2022-08-12T17:24:33.845Z,19.63
2022-08-12T17:27:08.997Z,16.83
2022-08-12T17:30:01.943Z,81.10
2022-08-12T17:32:37.456Z,16.35
2022-08-12T17:35:29.900Z,18.30
2022-08-12T17:38:08.421Z,14.52
2022-08-12T17:40:43.842Z,14.07
2022-08-12T17:43:56.981Z,15.15
2022-08-12T17:46:13.026Z,16.23
2022-08-12T17:48:57.846Z,16.58
2022-08-12T17:51:31.690Z,15.00
2022-08-12T17:54:05.912Z,15.98
2022-08-12T17:56:43.558Z,22.25
2022-08-12T17:59:14.330Z,17.38
2022-08-12T18:02:05.478Z,15.13
2022-08-12T18:04:36.327Z,16.65
2022-08-12T18:07:08.833Z,19.60
2022-08-12T18:09:39.593Z,17.52
2022-08-12T18:12:34.748Z,16.75
2022-08-12T18:15:08.546Z,14.93
2022-08-12T18:17:44.649Z,16.90
2022-08-12T18:20:19.612Z,14.93
2022-08-12T18:22:55.875Z,18.75
2022-08-12T18:26:14.869Z,15.02
2022-08-12T18:28:44.491Z,19.55
2022-08-12T18:31:20.869Z,14.40
2022-08-12T18:33:53.935Z,15.90
2022-08-12T18:36:25.105Z,16.58
2022-08-12T18:38:59.727Z,13.75
2022-08-12T18:41:37.230Z,18.35
2022-08-12T18:44:14.126Z,19.30
2022-08-12T18:46:55.170Z,17.25
2022-08-12T18:49:38.703Z,17.83
2022-08-12T18:52:12.107Z,25.10
2022-08-12T18:54:49.334Z,23.88
2022-08-12T18:57:46.021Z,26.15
2022-08-12T19:00:23.299Z,15.98
2022-08-12T19:02:55.997Z,17.65
2022-08-12T19:05:53.053Z,16.75
2022-08-12T19:08:17.437Z,19.73
2022-08-12T19:10:51.135Z,17.63
2022-08-12T19:13:43.582Z,14.82
2022-08-12T19:16:14.333Z,17.80
2022-08-12T19:18:46.166Z,16.23
2022-08-12T19:21:20.318Z,13.70
2022-08-12T19:24:11.516Z,14.20
2022-08-12T19:26:43.862Z,18.85
2022-08-12T19:29:15.363Z,15.63
2022-08-12T19:31:58.112Z,16.63
2022-08-12T19:38:02.848Z,17.50
2022-08-12T19:40:20.414Z,15.30
2022-08-12T19:43:13.396Z,13.60
2022-08-12T19:45:57.351Z,16.88
2022-08-12T19:48:33.290Z,15.80
2022-08-12T19:51:22.596Z,18.88
2022-08-12T19:53:57.297Z,14.98
2022-08-12T19:56:30.086Z,13.18
2022-08-12T19:59:21.388Z,14.23
2022-08-12T20:02:02.918Z,13.02
2022-08-12T20:04:38.958Z,12.82
2022-08-12T20:07:23.220Z,13.95
2022-08-12T20:09:56.294Z,16.10
2022-08-12T20:12:34.664Z,13.27
2022-08-12T20:15:10.571Z,16.25
2022-08-12T20:17:50.712Z,16.00
2022-08-12T20:20:27.602Z,15.30
2022-08-12T20:22:58.657Z,14.65
2022-08-12T20:25:51.945Z,14.43
2022-08-12T20:28:20.146Z,14.18
2022-08-12T20:30:53.546Z,14.10
2022-08-12T20:33:50.104Z,15.95
2022-08-12T20:36:41.077Z,14.57
2022-08-12T20:39:37.543Z,14.07
2022-08-12T20:42:07.685Z,16.80
2022-08-12T20:44:42.293Z,16.35
2022-08-12T20:47:18.187Z,15.73
2022-08-12T20:49:54.923Z,15.02
2022-08-12T20:52:34.260Z,14.18
2022-08-12T20:55:15.533Z,17.05
2022-08-12T20:58:02.442Z,15.38
2022-08-12T21:00:33.765Z,14.95
2022-08-12T21:03:23.973Z,15.93
2022-08-12T21:06:14.228Z,16.27
2022-08-12T21:08:45.307Z,16.08
2022-08-12T21:11:15.442Z,16.88
2022-08-12T21:13:46.744Z,15.35
2022-08-12T21:16:16.788Z,16.30
2022-08-12T21:19:08.089Z,15.95
2022-08-12T21:21:40.412Z,13.65
2022-08-12T21:24:20.304Z,15.02
2022-08-12T21:27:03.424Z,17.13
2022-08-12T21:29:40.125Z,14.73
2022-08-12T21:32:39.908Z,15.88
2022-08-12T21:35:15.831Z,15.13
2022-08-12T21:37:53.479Z,15.70
2022-08-12T21:40:36.897Z,16.13
2022-08-12T21:43:09.796Z,15.75
2022-08-12T21:45:58.085Z,17.17
2022-08-12T21:48:31.776Z,15.10
2022-08-12T21:51:01.868Z,14.65
2022-08-12T21:54:05.906Z,14.30
2022-08-12T21:56:34.735Z,15.20
2022-08-12T21:59:14.423Z,20.42
2022-08-12T22:01:48.987Z,17.90
2022-08-12T22:04:39.933Z,18.10
2022-08-12T22:07:10.842Z,17.02
2022-08-12T22:09:43.252Z,17.55
2022-08-12T22:12:33.413Z,17.63
2022-08-12T22:15:03.846Z,17.27
2022-08-12T22:17:50.233Z,20.83
2022-08-12T22:20:29.349Z,19.15
2022-08-12T22:23:02.438Z,19.70
2022-08-12T22:25:33.034Z,22.52
2022-08-12T22:28:24.520Z,19.40
2022-08-12T22:31:15.045Z,21.13
2022-08-12T22:33:54.123Z,20.92
2022-08-12T22:36:30.864Z,19.73
2022-08-12T22:39:03.609Z,21.40
2022-08-12T22:41:56.911Z,20.25
2022-08-12T22:44:54.754Z,19.33
2022-08-12T22:47:53.966Z,21.10
2022-08-12T22:50:27.681Z,20.42
2022-08-12T22:53:19.031Z,20.20
2022-08-12T22:56:05.640Z,20.70
2022-08-12T22:58:41.370Z,21.88
2022-08-12T23:01:50.208Z,23.63
2022-08-12T23:04:11.949Z,42.92
2022-08-12T23:06:49.563Z,23.05
2022-08-12T23:09:24.081Z,21.33
2022-08-12T23:11:54.757Z,23.77
2022-08-12T23:14:30.559Z,23.38
2022-08-12T23:17:00.636Z,24.67
2022-08-12T23:19:36.277Z,21.80
2022-08-12T23:22:36.419Z,20.65
2022-08-12T23:25:01.912Z,19.60
2022-08-12T23:27:55.708Z,20.65
2022-08-12T23:30:32.021Z,24.23
2022-08-12T23:33:20.045Z,24.15
2022-08-12T23:35:59.079Z,22.38
2022-08-12T23:38:35.872Z,22.30
2022-08-12T23:41:07.393Z,22.85
2022-08-12T23:43:48.790Z,23.88
2022-08-12T23:46:22.589Z,21.33
2022-08-12T23:48:58.296Z,22.27
2022-08-12T23:51:32.088Z,21.92
2022-08-12T23:54:04.462Z,22.00
2022-08-12T23:56:34.702Z,21.75
2022-08-12T23:59:07.005Z,24.17
